Time;durP1;ratioP1;P1;durP2;ratioP2;P2;SDS_P1;SDS_P2;PMS_P1;PMS_P2;Temp;Humidity;BMP_temperature;BMP_pressure;BME280_temperature;BME280_humidity;BME280_pressure;Samples;Min_cycle;Max_cycle;Signal;HPM_P1;HPM_P2
2023/03/02 06:39:57;;;;;;;;;;;;;;;2.32;63.79;98248.72;6208562;22;19935;-60
2023/03/02 06:42:23;;;;;;;;;;;;;;;2.28;64.23;98259.25;6184176;23;19924;-61
2023/03/02 06:44:50;;;;;;;;;;;;;;;2.20;63.88;98251.72;6214783;23;19908;-62
2023/03/02 06:47:15;;;;;;;;;;;;;;;2.14;63.54;98257.97;6214059;23;20319;-61
2023/03/02 06:49:40;;;;;;;;;;;;;;;2.09;63.90;98254.69;6214860;23;20343;-61
2023/03/02 06:52:06;;;;;;;;;;;;;;;1.90;64.94;98251.88;6214397;23;20345;-61
2023/03/02 06:54:31;;;;;;;;;;;;;;;1.93;65.56;98258.69;6214681;23;20327;-61
2023/03/02 06:56:57;;;;;;;;;;;;;;;1.85;65.81;98258.09;6188005;23;20365;-62
2023/03/02 06:59:22;;;;;;;;;;;;;;;1.89;66.09;98250.19;6215090;23;20323;-62
2023/03/02 07:01:49;;;;;;;;;;;;;;;1.91;66.00;98250.13;6214919;23;20343;-61
2023/03/02 07:04:14;;;;;;;;;;;;;;;1.90;65.90;98253.63;6185959;23;19962;-59
2023/03/02 07:06:39;;;;;;;;;;;;;;;1.96;66.43;98258.59;6213655;23;19915;-61
2023/03/02 07:09:05;;;;;;;;;;;;;;;2.06;66.80;98257.38;6211984;23;19958;-60
2023/03/02 07:11:30;;;;;;;;;;;;;;;2.08;66.85;98255.59;6212020;23;19914;-61
2023/03/02 07:13:55;;;;;;;;;;;;;;;2.16;66.38;98255.31;6214820;23;19990;-61
2023/03/02 07:16:20;;;;;;;;;;;;;;;2.23;66.17;98261.97;6211558;23;19939;-62
2023/03/02 07:18:45;;;;;;;;;;;;;;;2.29;66.43;98254.00;6186567;23;20236;-62
2023/03/02 07:21:11;;;;;;;;;;;;;;;2.36;66.35;98262.41;6212079;23;20302;-62
2023/03/02 07:23:36;;;;;;;;;;;;;;;2.43;66.21;98253.53;6213314;23;20698;-62
2023/03/02 07:26:01;;;;;;;;;;;;;;;2.68;74.21;98250.06;6209378;23;19916;-61
2023/03/02 07:28:26;;;;;;;;;;;;;;;2.78;68.08;98248.84;6213903;23;20358;-62
2023/03/02 07:30:52;;;;;;;;;;;;;;;2.83;66.18;98249.53;6214828;23;20351;-62
2023/03/02 07:33:17;;;;;;;;;;;;;;;2.92;65.56;98248.31;6214689;23;20319;-62
2023/03/02 07:35:42;;;;;;;;;;;;;;;2.98;65.09;98241.19;6211914;23;19989;-62
2023/03/02 07:38:07;;;;;;;;;;;;;;;3.06;64.75;98252.13;6213603;23;19912;-62
2023/03/02 07:40:33;;;;;;;;;;;;;;;3.13;63.81;98251.88;6213424;23;19919;-63
2023/03/02 07:42:58;;;;;;;;;;;;;;;3.19;63.90;98251.63;6213763;23;19907;-62
2023/03/02 07:45:24;;;;;;;;;;;;;;;3.26;63.77;98251.34;6214560;23;20026;-62
2023/03/02 07:47:50;;;;;;;;;;;;;;;3.34;63.62;98248.47;6214856;23;19907;-63
2023/03/02 07:50:15;;;;;;;;;;;;;;;3.41;63.00;98244.75;6188246;23;19908;-64
2023/03/02 07:52:40;;;;;;;;;;;;;;;3.49;62.61;98241.84;6213562;23;19914;-62
2023/03/02 07:55:05;;;;;;;;;;;;;;;3.62;64.23;98247.38;6214682;23;19958;-63
2023/03/02 07:57:31;;;;;;;;;;;;;;;3.73;63.71;98243.44;6215154;23;19908;-62
2023/03/02 07:59:56;;;;;;;;;;;;;;;3.85;63.92;98242.09;6187049;23;19908;-62
2023/03/02 08:02:21;;;;;;;;;;;;;;;3.93;63.34;98241.81;6214356;23;19915;-62
2023/03/02 08:04:46;;;;;;;;;;;;;;;4.03;62.72;98249.16;6214876;23;19908;-62
2023/03/02 08:07:12;;;;;;;;;;;;;;;4.12;62.27;98241.88;6214705;23;19919;-63
2023/03/02 08:09:37;;;;;;;;;;;;;;;4.21;62.85;98249.28;6214580;23;19930;-62
2023/03/02 08:12:03;;;;;;;;;;;;;;;4.31;62.54;98241.97;6187884;23;19907;-62
2023/03/02 08:14:28;;;;;;;;;;;;;;;4.40;61.95;98246.72;6187025;23;19935;-62
2023/03/02 08:16:54;;;;;;;;;;;;;;;4.46;61.44;98249.91;6214738;23;19919;-62
2023/03/02 08:19:19;;;;;;;;;;;;;;;4.53;61.26;98246.13;6214940;23;19908;-63
2023/03/02 08:21:44;;;;;;;;;;;;;;;4.62;61.38;98241.47;6213933;23;20331;-63
2023/03/02 08:24:10;;;;;;;;;;;;;;;4.72;61.91;98243.59;6213907;23;20346;-63
2023/03/02 08:26:35;;;;;;;;;;;;;;;4.80;61.39;98245.84;6187696;23;20323;-62
2023/03/02 08:29:00;;;;;;;;;;;;;;;4.86;60.98;98250.78;6186205;23;20255;-62
2023/03/02 08:31:25;;;;;;;;;;;;;;;4.95;59.42;98252.94;6214468;23;19930;-63
2023/03/02 08:33:51;;;;;;;;;;;;;;;5.02;59.61;98256.09;6213752;23;19915;-63
2023/03/02 08:36:17;;;;;;;;;;;;;;;5.10;59.83;98247.97;6187843;23;19950;-63
2023/03/02 08:38:42;;;;;;;;;;;;;;;5.18;59.88;98251.91;6187943;23;19915;-63
2023/03/02 08:41:09;;;;;;;;;;;;;;;5.25;59.85;98249.88;6214060;23;19912;-63
2023/03/02 08:43:34;;;;;;;;;;;;;;;5.34;59.71;98244.25;6187541;23;19915;-63
2023/03/02 08:45:59;;;;;;;;;;;;;;;5.43;59.56;98241.19;6213836;23;19955;-61
2023/03/02 08:48:25;;;;;;;;;;;;;;;5.52;58.99;98246.91;6214498;23;19908;-62
2023/03/02 08:51:10;;;;;;;;;;;;;;;5.58;58.47;98234.44;6213809;23;19908;-62
2023/03/02 08:53:36;;;;;;;;;;;;;;;5.69;58.94;98236.53;6187774;23;19923;-62
2023/03/02 08:56:01;;;;;;;;;;;;;;;5.78;58.89;98230.88;6213480;23;19908;-62
2023/03/02 08:58:26;;;;;;;;;;;;;;;5.86;58.24;98226.13;6214458;23;20379;-62
2023/03/02 09:00:51;;;;;;;;;;;;;;;5.94;57.62;98226.63;6213833;23;19915;-62
2023/03/02 09:03:17;;;;;;;;;;;;;;;6.03;56.38;98222.72;6187068;23;19986;-61
2023/03/02 09:05:42;;;;;;;;;;;;;;;6.11;56.21;98222.34;6214268;23;19950;-62
2023/03/02 09:08:07;;;;;;;;;;;;;;;6.18;56.66;98210.69;6187830;23;19908;-63
2023/03/02 09:10:33;;;;;;;;;;;;;;;6.26;56.20;98216.34;6187612;23;20286;-62
2023/03/02 09:12:58;;;;;;;;;;;;;;;6.34;56.13;98218.59;6186720;23;19908;-63
2023/03/02 09:15:23;;;;;;;;;;;;;;;6.41;55.96;98215.56;6187544;23;19907;-63
2023/03/02 09:17:48;;;;;;;;;;;;;;;6.50;55.85;98218.63;6214276;23;19915;-63
2023/03/02 09:20:14;;;;;;;;;;;;;;;6.59;55.94;98218.16;6214171;23;19912;-62
2023/03/02 09:22:39;;;;;;;;;;;;;;;6.67;55.29;98223.78;6213524;23;19908;-63
2023/03/02 09:25:05;;;;;;;;;;;;;;;6.77;54.78;98222.38;6186610;23;19918;-63
2023/03/02 09:27:30;;;;;;;;;;;;;;;6.88;54.75;98220.06;6214166;23;20328;-63
2023/03/02 09:29:55;;;;;;;;;;;;;;;6.98;55.01;98219.56;6214097;23;19908;-63
2023/03/02 09:32:20;;;;;;;;;;;;;;;7.09;55.40;98217.25;6213877;23;19955;-63
2023/03/02 09:34:46;;;;;;;;;;;;;;;7.20;55.51;98220.09;6213593;23;19959;-63
2023/03/02 09:37:11;;;;;;;;;;;;;;;7.31;55.08;98217.72;6214132;23;19912;-63
2023/03/02 09:39:36;;;;;;;;;;;;;;;7.42;54.04;98214.53;6214058;23;19931;-64
2023/03/02 09:42:06;;;;;;;;;;;;;;;7.53;53.75;98216.53;6213909;23;19915;-64
2023/03/02 09:44:39;;;;;;;;;;;;;;;7.65;53.53;98213.25;6186821;23;19943;-64
2023/03/02 09:47:10;;;;;;;;;;;;;;;7.77;52.57;98214.31;6187479;23;19940;-64
2023/03/02 09:49:52;;;;;;;;;;;;;;;7.89;53.13;98210.16;6187558;23;19990;-65
2023/03/02 09:52:30;;;;;;;;;;;;;;;8.02;53.55;98218.97;6187655;23;19907;-64
2023/03/02 09:54:57;;;;;;;;;;;;;;;8.17;52.31;98207.63;6187581;23;19915;-63
2023/03/02 09:57:24;;;;;;;;;;;;;;;8.32;52.65;98211.94;6187042;23;20258;-62
2023/03/02 09:59:50;;;;;;;;;;;;;;;8.46;51.77;98202.47;6187493;23;19908;-63
2023/03/02 10:02:29;;;;;;;;;;;;;;;8.59;52.00;98200.81;6188064;23;19911;-64
2023/03/02 10:04:55;;;;;;;;;;;;;;;8.76;52.16;98203.22;6215464;23;20370;-65
2023/03/02 10:07:26;;;;;;;;;;;;;;;8.89;50.58;98198.09;6188593;23;19912;-63
2023/03/02 10:09:51;;;;;;;;;;;;;;;9.07;51.26;98197.88;6215802;23;19915;-63
2023/03/02 10:12:17;;;;;;;;;;;;;;;9.21;51.00;98203.91;6189272;23;20394;-62
2023/03/02 10:14:53;;;;;;;;;;;;;;;9.37;49.82;98197.72;6215787;23;20233;-63
2023/03/02 10:17:22;;;;;;;;;;;;;;;9.52;49.66;98188.88;6188356;23;19908;-64
2023/03/02 10:19:49;;;;;;;;;;;;;;;9.68;49.48;98194.81;6189102;23;19908;-65
2023/03/02 10:22:33;;;;;;;;;;;;;;;9.87;49.83;98183.13;6164278;23;19983;-63
2023/03/02 10:25:20;;;;;;;;;;;;;;;10.05;47.64;98173.19;6215813;23;20286;-63
2023/03/02 10:27:49;;;;;;;;;;;;;;;10.23;47.89;98179.84;6163295;23;20232;-64
2023/03/02 10:30:19;;;;;;;;;;;;;;;10.38;47.05;98188.47;6188996;23;19912;-62
2023/03/02 10:32:45;;;;;;;;;;;;;;;10.53;47.46;98190.06;6188964;23;19907;-63
2023/03/02 10:35:18;;;;;;;;;;;;;;;10.68;46.19;98181.13;6215674;23;19915;-63
2023/03/02 10:37:43;;;;;;;;;;;;;;;10.86;46.08;98183.41;6214940;23;19974;-63
2023/03/02 10:40:12;;;;;;;;;;;;;;;11.03;45.25;98185.69;6215383;23;19954;-63
2023/03/02 10:42:39;;;;;;;;;;;;;;;11.19;45.22;98195.94;6188897;23;19916;-62
2023/03/02 10:45:13;;;;;;;;;;;;;;;11.36;45.65;98190.34;6189306;23;19907;-65
2023/03/02 10:47:38;;;;;;;;;;;;;;;11.56;45.85;98183.63;6215614;23;20042;-65
2023/03/02 10:50:04;;;;;;;;;;;;;;;11.75;44.60;98183.13;6188722;23;19936;-62
2023/03/02 10:52:29;;;;;;;;;;;;;;;11.93;44.35;98180.94;6188683;23;20007;-62
2023/03/02 10:55:23;;;;;;;;;;;;;;;12.09;43.23;98170.13;6214536;23;19911;-63
2023/03/02 10:58:02;;;;;;;;;;;;;;;12.33;43.17;98167.44;6093568;23;19909;-63
2023/03/02 11:00:28;;;;;;;;;;;;;;;12.53;42.47;98176.44;6070010;23;20313;-62
2023/03/02 11:02:55;;;;;;;;;;;;;;;12.73;42.51;98166.97;6069784;23;19951;-63
2023/03/02 11:05:28;;;;;;;;;;;;;;;12.95;41.97;98161.72;6093430;23;19920;-60
2023/03/02 11:07:53;;;;;;;;;;;;;;;13.20;40.93;98165.03;6093904;23;19984;-62
2023/03/02 11:10:19;;;;;;;;;;;;;;;13.42;41.21;98148.34;6093975;23;19944;-62
2023/03/02 11:12:45;;;;;;;;;;;;;;;13.67;40.44;98155.13;6093819;23;20050;-63
2023/03/02 11:15:25;;;;;;;;;;;;;;;13.92;40.57;98154.75;6093765;23;19909;-62
2023/03/02 11:17:52;;;;;;;;;;;;;;;14.15;38.99;98150.22;6093584;23;20333;-63
2023/03/02 11:20:24;;;;;;;;;;;;;;;14.37;38.26;98148.38;6069766;23;19909;-63
2023/03/02 11:22:58;;;;;;;;;;;;;;;14.65;38.71;98142.44;6069865;23;19913;-63
2023/03/02 11:25:34;;;;;;;;;;;;;;;14.93;37.45;98138.28;6069855;23;20586;-62
2023/03/02 11:28:02;;;;;;;;;;;;;;;15.20;37.32;98136.78;6069929;23;19909;-62
2023/03/02 11:30:28;;;;;;;;;;;;;;;15.44;36.42;98137.25;6069265;23;20155;-61
2023/03/02 11:32:53;;;;;;;;;;;;;;;15.63;35.55;98132.97;6069290;23;19909;-62
2023/03/02 11:35:39;;;;;;;;;;;;;;;15.86;35.66;98139.69;6209124;23;19908;-61
2023/03/02 11:38:40;;;;;;;;;;;;;;;16.08;35.17;98132.41;6187916;23;19912;-62
2023/03/02 11:41:09;;;;;;;;;;;;;;;16.34;35.20;98133.47;6092840;23;19925;-61
2023/03/02 11:43:35;;;;;;;;;;;;;;;16.58;34.95;98132.13;6093051;23;19913;-60
2023/03/02 11:46:04;;;;;;;;;;;;;;;16.80;34.57;98129.16;6093546;23;19988;-61
2023/03/02 11:48:33;;;;;;;;;;;;;;;17.06;34.12;98123.16;6069445;23;20321;-62
2023/03/02 11:50:59;;;;;;;;;;;;;;;17.36;33.85;98113.22;6093507;23;20444;-61
2023/03/02 11:53:26;;;;;;;;;;;;;;;17.58;33.02;98118.06;6068771;23;19917;-61
2023/03/02 11:55:51;;;;;;;;;;;;;;;17.84;32.71;98117.34;6068888;23;19909;-62
2023/03/02 11:58:20;;;;;;;;;;;;;;;18.06;32.63;98114.19;6093355;23;20037;-61
2023/03/02 12:00:45;;;;;;;;;;;;;;;18.23;31.27;98102.72;6069124;23;19937;-63
2023/03/02 12:03:13;;;;;;;;;;;;;;;18.37;30.79;98108.44;6067885;23;19916;-63
2023/03/02 12:05:39;;;;;;;;;;;;;;;18.52;30.69;98104.22;6092857;23;20024;-63
2023/03/02 12:08:05;;;;;;;;;;;;;;;18.72;30.37;98102.22;6069357;23;19941;-62
2023/03/02 12:10:32;;;;;;;;;;;;;;;18.92;30.29;98095.63;6093362;23;19961;-63
2023/03/02 12:12:59;;;;;;;;;;;;;;;19.13;30.28;98095.22;6093258;23;19916;-62
2023/03/02 12:15:25;;;;;;;;;;;;;;;19.35;29.99;98088.44;6146122;23;20335;-63
2023/03/02 12:17:50;;;;;;;;;;;;;;;19.60;29.07;98085.81;6187962;23;19914;-63
2023/03/02 12:20:19;;;;;;;;;;;;;;;19.83;28.99;98083.38;6188370;23;20324;-63
2023/03/02 12:22:44;;;;;;;;;;;;;;;20.06;28.88;98080.84;6214392;23;19919;-63
2023/03/02 12:25:18;;;;;;;;;;;;;;;20.25;27.83;98079.66;6214905;23;19908;-63
2023/03/02 12:27:44;;;;;;;;;;;;;;;20.49;28.14;98082.25;6214489;23;19907;-62
2023/03/02 12:30:22;;;;;;;;;;;;;;;20.70;26.86;98076.38;6213871;23;19908;-61
2023/03/02 12:33:06;;;;;;;;;;;;;;;20.88;27.17;98068.16;6187561;23;19908;-63
2023/03/02 12:35:32;;;;;;;;;;;;;;;21.14;27.26;98059.03;6214264;23;19908;-62
2023/03/02 12:37:59;;;;;;;;;;;;;;;21.39;26.93;98073.88;6184700;23;20402;-62
2023/03/02 12:40:43;;;;;;;;;;;;;;;21.55;26.53;98071.13;6186352;23;19911;-59
2023/03/02 12:43:17;;;;;;;;;;;;;;;21.74;25.92;98071.63;6212309;23;19912;-63
2023/03/02 12:45:53;;;;;;;;;;;;;;;22.02;25.54;98067.41;6213756;23;19912;-63
2023/03/02 12:48:27;;;;;;;;;;;;;;;22.21;25.51;98065.25;6187406;23;19962;-63
2023/03/02 12:50:59;;;;;;;;;;;;;;;22.43;24.96;98056.31;6214435;23;19908;-62
2023/03/02 12:53:25;;;;;;;;;;;;;;;22.64;24.97;98054.72;6186800;23;19912;-63
2023/03/02 12:55:50;;;;;;;;;;;;;;;22.86;25.28;98059.16;6212865;23;20254;-63
2023/03/02 12:58:19;;;;;;;;;;;;;;;23.09;24.46;98052.84;6213673;23;20315;-63
2023/03/02 13:00:52;;;;;;;;;;;;;;;23.33;24.58;98049.00;6214436;23;19915;-63
2023/03/02 13:03:17;;;;;;;;;;;;;;;23.62;24.15;98050.72;6213848;23;19919;-64
2023/03/02 13:05:42;;;;;;;;;;;;;;;23.84;23.42;98047.03;6212772;23;19912;-64
2023/03/02 13:08:12;;;;;;;;;;;;;;;24.00;22.96;98047.78;6213470;23;20294;-64
2023/03/02 13:10:39;;;;;;;;;;;;;;;24.17;22.94;98043.78;6187343;23;19908;-64
2023/03/02 13:13:17;;;;;;;;;;;;;;;24.44;23.13;98044.00;6187673;23;19908;-64
2023/03/02 13:16:02;;;;;;;;;;;;;;;24.47;22.45;98032.88;6187086;23;19995;-63
2023/03/02 13:18:30;;;;;;;;;;;;;;;24.39;21.71;98031.97;6213798;23;19908;-62
2023/03/02 13:20:56;;;;;;;;;;;;;;;24.66;22.36;98031.31;6187920;23;20312;-64
2023/03/02 13:23:21;;;;;;;;;;;;;;;24.98;22.36;98021.72;6187412;23;19935;-64
2023/03/02 13:25:53;;;;;;;;;;;;;;;25.22;22.47;98021.22;6213747;23;19935;-65
2023/03/02 13:28:29;;;;;;;;;;;;;;;25.50;21.68;98025.63;6186321;23;19911;-64
2023/03/02 13:30:58;;;;;;;;;;;;;;;25.76;21.75;98017.56;6184764;23;19908;-65
2023/03/02 13:33:23;;;;;;;;;;;;;;;25.99;21.47;98017.16;6184988;23;19954;-65
2023/03/02 13:35:48;;;;;;;;;;;;;;;26.09;21.40;98014.06;6214188;23;19911;-65
2023/03/02 13:38:17;;;;;;;;;;;;;;;26.17;21.16;98019.22;6216211;23;19908;-65
2023/03/02 13:40:45;;;;;;;;;;;;;;;26.19;20.91;98024.41;6187529;23;19987;-65
2023/03/02 13:43:29;;;;;;;;;;;;;;;26.18;20.68;98020.03;6189829;23;19907;-65
2023/03/02 13:45:57;;;;;;;;;;;;;;;26.02;20.40;98010.56;6215952;23;19912;-65
2023/03/02 13:48:22;;;;;;;;;;;;;;;26.22;20.61;98016.75;6216187;23;19908;-65
2023/03/02 13:51:00;;;;;;;;;;;;;;;24.86;24.91;98022.31;6216233;23;20394;-63
2023/03/02 13:53:26;;;;;;;;;;;;;;;23.58;26.02;98017.34;6216051;23;19912;-63
2023/03/02 13:55:52;;;;;;;;;;;;;;;23.16;25.74;98019.00;6189858;23;19986;-62
2023/03/02 13:58:18;;;;;;;;;;;;;;;23.21;25.42;98012.03;6189793;23;19908;-62
2023/03/02 14:00:43;;;;;;;;;;;;;;;23.07;25.70;98017.44;6215800;23;19915;-62
2023/03/02 14:03:19;;;;;;;;;;;;;;;22.93;25.75;98017.28;6215225;23;20398;-62
2023/03/02 14:05:44;;;;;;;;;;;;;;;22.81;26.12;98020.59;6189239;23;20336;-62
2023/03/02 14:08:10;;;;;;;;;;;;;;;23.91;23.30;97999.69;6216278;23;19987;-62
2023/03/02 14:10:35;;;;;;;;;;;;;;;24.43;22.56;98016.34;6215786;23;20331;-63
2023/03/02 14:13:02;;;;;;;;;;;;;;;24.65;22.05;98009.03;6189047;23;20294;-64
2023/03/02 14:15:27;;;;;;;;;;;;;;;25.04;21.86;98002.16;6215592;23;19914;-65
2023/03/02 14:17:52;;;;;;;;;;;;;;;25.38;21.76;98000.41;6189278;23;20301;-62
2023/03/02 14:20:18;;;;;;;;;;;;;;;25.57;21.09;97996.91;6215147;23;19962;-63
2023/03/02 14:22:43;;;;;;;;;;;;;;;25.60;20.59;98001.03;6215412;23;19908;-63
2023/03/02 14:25:09;;;;;;;;;;;;;;;25.71;20.35;97998.56;6189321;23;20292;-63
2023/03/02 14:27:34;;;;;;;;;;;;;;;25.59;20.74;97989.47;6215277;23;20239;-63
2023/03/02 14:29:59;;;;;;;;;;;;;;;25.89;20.25;97994.47;6188704;23;19918;-63
2023/03/02 14:32:25;;;;;;;;;;;;;;;25.96;20.66;97988.03;6215424;23;19915;-64
2023/03/02 14:34:50;;;;;;;;;;;;;;;25.85;20.21;97988.66;6215801;23;19907;-64
2023/03/02 14:37:16;;;;;;;;;;;;;;;25.90;20.06;97982.66;6215723;23;19919;-62
2023/03/02 14:39:42;;;;;;;;;;;;;;;25.32;20.43;97992.13;6215109;23;19908;-62
2023/03/02 14:42:10;;;;;;;;;;;;;;;25.57;20.79;97991.53;6188857;23;19984;-64
2023/03/02 14:44:35;;;;;;;;;;;;;;;25.62;20.46;97981.00;6215568;23;20179;-62
2023/03/02 14:47:00;;;;;;;;;;;;;;;25.53;20.51;97983.06;6215742;23;19950;-63
2023/03/02 14:49:25;;;;;;;;;;;;;;;25.58;20.22;97982.44;6215181;23;20328;-63
2023/03/02 14:52:14;;;;;;;;;;;;;;;25.66;20.57;97990.28;6214332;23;20243;-63
2023/03/02 14:54:48;;;;;;;;;;;;;;;25.62;20.46;97989.06;6199202;23;19915;-64
2023/03/02 14:57:17;;;;;;;;;;;;;;;25.42;20.56;97986.34;6215358;23;19912;-62
2023/03/02 14:59:42;;;;;;;;;;;;;;;25.39;21.26;97983.25;6188819;23;20132;-63
2023/03/02 15:02:08;;;;;;;;;;;;;;;25.44;20.93;97975.44;6214990;23;19923;-63
2023/03/02 15:04:33;;;;;;;;;;;;;;;24.82;21.50;97985.38;6215266;23;19911;-62
2023/03/02 15:06:59;;;;;;;;;;;;;;;24.79;20.95;97985.78;6215224;23;19912;-62
2023/03/02 15:09:24;;;;;;;;;;;;;;;24.43;21.18;97994.06;6215227;23;19915;-61
2023/03/02 15:11:49;;;;;;;;;;;;;;;24.39;22.02;97991.75;6214058;23;19908;-63
2023/03/02 15:14:15;;;;;;;;;;;;;;;24.16;21.88;97993.91;6215016;23;19908;-59
2023/03/02 15:16:41;;;;;;;;;;;;;;;24.01;21.89;97987.81;6215310;23;19986;-62
2023/03/02 15:19:07;;;;;;;;;;;;;;;23.79;22.33;97987.88;6215078;23;19958;-61
2023/03/02 15:21:32;;;;;;;;;;;;;;;23.76;22.28;97993.63;6214743;23;19995;-61
2023/03/02 15:23:57;;;;;;;;;;;;;;;23.54;22.90;97989.31;6214663;23;19979;-62
2023/03/02 15:26:22;;;;;;;;;;;;;;;23.21;22.59;97996.00;6215085;23;19990;-62
2023/03/02 15:28:48;;;;;;;;;;;;;;;23.08;23.49;97995.03;6215168;23;19911;-61
2023/03/02 15:31:14;;;;;;;;;;;;;;;22.93;23.52;97993.22;6214362;23;19958;-60
2023/03/02 15:33:39;;;;;;;;;;;;;;;22.72;23.71;97995.84;6188713;23;19923;-61
2023/03/02 15:36:05;;;;;;;;;;;;;;;22.34;24.15;97992.47;6214807;23;20344;-61
2023/03/02 15:38:31;;;;;;;;;;;;;;;22.13;24.28;98002.03;6188243;23;20321;-61
2023/03/02 15:40:56;;;;;;;;;;;;;;;21.97;24.90;97992.34;6214614;23;19911;-60
2023/03/02 15:43:23;;;;;;;;;;;;;;;21.74;25.17;97996.91;6214675;23;19947;-61
2023/03/02 15:45:48;;;;;;;;;;;;;;;21.46;25.46;98002.81;6214846;23;19999;-62
2023/03/02 15:48:13;;;;;;;;;;;;;;;21.24;25.58;97995.63;6213984;23;19943;-62
2023/03/02 15:50:38;;;;;;;;;;;;;;;21.09;25.89;98009.72;6214502;23;19908;-61
2023/03/02 15:53:04;;;;;;;;;;;;;;;20.82;26.33;97996.91;6214990;23;19914;-61
2023/03/02 15:55:29;;;;;;;;;;;;;;;20.49;26.77;97999.66;6215191;23;20251;-61
2023/03/02 15:57:56;;;;;;;;;;;;;;;20.24;27.27;98003.44;6214813;23;20363;-61
2023/03/02 16:00:22;;;;;;;;;;;;;;;19.90;27.92;98007.19;6214055;23;19965;-61
2023/03/02 16:02:48;;;;;;;;;;;;;;;19.50;27.94;98003.50;6214551;23;20311;-61
2023/03/02 16:05:13;;;;;;;;;;;;;;;19.16;28.59;98004.47;6188417;23;20282;-61
2023/03/02 16:07:38;;;;;;;;;;;;;;;18.69;29.69;98006.84;6214964;23;19939;-62
2023/03/02 16:10:04;;;;;;;;;;;;;;;18.27;30.24;98008.53;6215056;23;20386;-62
2023/03/02 16:12:29;;;;;;;;;;;;;;;18.00;30.37;98006.88;6213617;23;19915;-61
2023/03/02 16:14:54;;;;;;;;;;;;;;;17.78;30.76;98008.22;6214258;23;19908;-62
2023/03/02 16:17:20;;;;;;;;;;;;;;;17.41;31.31;98010.22;6214734;23;20247;-60
2023/03/02 16:19:45;;;;;;;;;;;;;;;17.08;31.68;98017.88;6214529;23;19915;-62
2023/03/02 16:22:10;;;;;;;;;;;;;;;16.89;32.51;98018.00;6214536;23;19930;-61
2023/03/02 16:24:35;;;;;;;;;;;;;;;16.42;32.41;97991.63;6213795;23;19912;-61
2023/03/02 16:27:01;;;;;;;;;;;;;;;16.40;33.82;98015.59;6214097;23;19912;-61
2023/03/02 16:29:26;;;;;;;;;;;;;;;16.07;33.37;98022.25;6214530;23;19930;-60
2023/03/02 16:31:51;;;;;;;;;;;;;;;15.94;33.83;98029.69;6214387;23;19908;-61
2023/03/02 16:34:16;;;;;;;;;;;;;;;15.70;34.21;98027.53;6214465;23;19932;-62
2023/03/02 16:36:42;;;;;;;;;;;;;;;15.44;34.51;98028.06;6213781;23;19908;-63
2023/03/02 16:39:07;;;;;;;;;;;;;;;15.26;35.00;98035.84;6214400;23;19931;-61
2023/03/02 16:41:32;;;;;;;;;;;;;;;15.05;35.84;98032.50;6214064;23;19912;-61
2023/03/02 16:43:57;;;;;;;;;;;;;;;14.78;36.15;98036.63;6188350;23;19915;-61
2023/03/02 16:46:23;;;;;;;;;;;;;;;14.55;36.38;98041.28;6214262;23;20248;-61
2023/03/02 16:48:49;;;;;;;;;;;;;;;14.34;37.30;98037.84;6162446;23;20225;-61
2023/03/02 16:51:14;;;;;;;;;;;;;;;14.13;37.45;98041.34;6214289;23;19990;-61
2023/03/02 16:53:42;;;;;;;;;;;;;;;13.96;38.30;98039.31;6187922;23;19908;-62
2023/03/02 16:56:08;;;;;;;;;;;;;;;13.80;38.51;98045.06;6188720;23;19946;-61
2023/03/02 16:58:35;;;;;;;;;;;;;;;13.61;38.56;98053.69;6187451;23;19908;-61
2023/03/02 17:01:00;;;;;;;;;;;;;;;13.42;39.07;98051.75;6187537;23;19986;-61
2023/03/02 17:03:25;;;;;;;;;;;;;;;13.29;39.67;98059.81;6214136;23;19939;-61
2023/03/02 17:05:51;;;;;;;;;;;;;;;13.12;40.10;98065.59;6214109;23;19919;-61
2023/03/02 17:08:16;;;;;;;;;;;;;;;12.94;40.46;98067.06;6213780;23;19908;-60
2023/03/02 17:10:41;;;;;;;;;;;;;;;12.75;40.41;98070.34;6213806;23;19915;-61
2023/03/02 17:13:07;;;;;;;;;;;;;;;12.65;40.44;98069.38;6213682;23;19915;-61
2023/03/02 17:15:32;;;;;;;;;;;;;;;12.48;40.33;98068.91;6214299;23;20277;-61
2023/03/02 17:17:57;;;;;;;;;;;;;;;12.37;40.97;98075.97;6213218;23;20332;-62
2023/03/02 17:20:22;;;;;;;;;;;;;;;12.24;41.70;98083.97;6212717;23;19908;-62
2023/03/02 17:22:48;;;;;;;;;;;;;;;12.14;42.09;98083.00;6212917;23;19919;-62
2023/03/02 17:25:14;;;;;;;;;;;;;;;12.07;41.97;98088.72;6214455;23;20367;-62
2023/03/02 17:27:39;;;;;;;;;;;;;;;11.96;43.05;98086.09;6214149;23;19961;-61
2023/03/02 17:30:05;;;;;;;;;;;;;;;11.87;42.61;98092.03;6187463;23;19970;-62
2023/03/02 17:32:30;;;;;;;;;;;;;;;11.77;42.91;98085.81;6213320;23;19962;-62
2023/03/02 17:34:55;;;;;;;;;;;;;;;11.64;42.43;98086.72;6214168;23;19912;-62
2023/03/02 17:37:20;;;;;;;;;;;;;;;11.59;43.11;98098.50;6214185;23;19915;-62
2023/03/02 17:39:47;;;;;;;;;;;;;;;11.50;43.60;98089.53;6213413;23;19915;-61
2023/03/02 17:42:13;;;;;;;;;;;;;;;11.43;43.48;98098.81;6186864;23;19982;-62
2023/03/02 17:44:38;;;;;;;;;;;;;;;11.36;44.09;98102.84;6214170;23;19908;-62
2023/03/02 17:47:05;;;;;;;;;;;;;;;11.28;45.13;98102.53;6214069;23;19962;-62
2023/03/02 17:49:30;;;;;;;;;;;;;;;11.15;44.52;98103.44;6187441;23;20313;-62
2023/03/02 17:51:55;;;;;;;;;;;;;;;11.08;45.89;98096.09;6213523;23;19919;-61
2023/03/02 17:54:21;;;;;;;;;;;;;;;11.01;45.32;98102.75;6214073;23;19908;-63
2023/03/02 17:56:46;;;;;;;;;;;;;;;10.93;45.54;98108.56;6187489;23;19918;-62
2023/03/02 17:59:11;;;;;;;;;;;;;;;10.82;45.23;98108.50;6214320;23;19932;-61
2023/03/02 18:01:36;;;;;;;;;;;;;;;10.75;45.39;98112.50;6213304;23;19922;-62
2023/03/02 18:04:02;;;;;;;;;;;;;;;10.63;46.00;98109.81;6214036;23;20344;-62
2023/03/02 18:06:27;;;;;;;;;;;;;;;10.55;45.84;98117.34;6213907;23;20324;-61
2023/03/02 18:08:52;;;;;;;;;;;;;;;10.47;46.09;98124.91;6214445;23;19915;-60
2023/03/02 18:11:18;;;;;;;;;;;;;;;10.34;46.41;98124.09;6213608;23;19993;-60
2023/03/02 18:13:44;;;;;;;;;;;;;;;10.25;47.01;98127.28;6213435;23;19914;-60
2023/03/02 18:16:10;;;;;;;;;;;;;;;10.13;47.26;98129.81;6186529;23;19907;-61
2023/03/02 18:18:35;;;;;;;;;;;;;;;10.07;47.09;98132.84;6213974;23;19962;-59
2023/03/02 18:21:00;;;;;;;;;;;;;;;9.95;47.13;98131.06;6214162;23;19954;-59
2023/03/02 18:23:25;;;;;;;;;;;;;;;9.92;47.89;98139.97;6214670;23;19990;-60
2023/03/02 18:25:51;;;;;;;;;;;;;;;9.82;47.95;98140.69;6189055;23;19911;-60
2023/03/02 18:28:16;;;;;;;;;;;;;;;9.76;47.88;98144.53;6215316;23;19912;-58
2023/03/02 18:30:41;;;;;;;;;;;;;;;9.67;47.74;98140.75;6215471;23;19907;-60
2023/03/02 18:33:06;;;;;;;;;;;;;;;9.61;48.07;98146.41;6215360;23;19908;-58
2023/03/02 18:35:31;;;;;;;;;;;;;;;9.55;48.51;98143.34;6215688;23;19994;-60
2023/03/02 18:37:57;;;;;;;;;;;;;;;9.46;48.88;98152.63;6215647;23;19908;-60
2023/03/02 18:40:22;;;;;;;;;;;;;;;9.42;49.57;98156.38;6214281;23;19966;-61
2023/03/02 18:42:47;;;;;;;;;;;;;;;9.37;49.68;98151.44;6215405;23;20244;-60
2023/03/02 18:45:16;;;;;;;;;;;;;;;9.35;49.33;98160.34;6215618;23;20276;-61
2023/03/02 18:47:42;;;;;;;;;;;;;;;9.28;50.14;98155.47;6186361;23;19919;-61
2023/03/02 18:50:07;;;;;;;;;;;;;;;9.21;50.17;98159.44;6213691;23;19908;-60
2023/03/02 18:52:32;;;;;;;;;;;;;;;9.18;50.41;98161.41;6212291;23;19908;-61
2023/03/02 18:54:57;;;;;;;;;;;;;;;9.12;49.87;98159.16;6214180;23;20319;-61
2023/03/02 18:57:23;;;;;;;;;;;;;;;9.04;50.24;98157.03;6187182;23;20346;-61
2023/03/02 18:59:48;;;;;;;;;;;;;;;8.95;50.47;98163.72;6188709;23;20251;-60
2023/03/02 19:02:15;;;;;;;;;;;;;;;8.90;50.55;98159.69;6215131;23;19908;-58
2023/03/02 19:04:40;;;;;;;;;;;;;;;8.80;51.04;98172.50;6214471;23;19919;-60
2023/03/02 19:07:06;;;;;;;;;;;;;;;8.75;51.96;98177.19;6214696;23;19916;-60
2023/03/02 19:09:31;;;;;;;;;;;;;;;8.69;51.10;98177.56;6214172;23;19958;-60
2023/03/02 19:11:57;;;;;;;;;;;;;;;8.64;51.78;98179.63;6186537;23;19907;-59
2023/03/02 19:14:22;;;;;;;;;;;;;;;8.62;51.89;98178.88;6214292;23;19908;-58
2023/03/02 19:16:47;;;;;;;;;;;;;;;8.55;51.61;98181.00;6214787;23;20013;-61
2023/03/02 19:19:12;;;;;;;;;;;;;;;8.55;52.99;98183.63;6214822;23;19908;-60
2023/03/02 19:21:37;;;;;;;;;;;;;;;8.47;52.87;98184.09;6214808;23;19914;-61
2023/03/02 19:24:03;;;;;;;;;;;;;;;8.43;52.52;98184.34;6186408;23;19939;-61
2023/03/02 19:26:28;;;;;;;;;;;;;;;8.40;51.61;98187.19;6214372;23;19912;-61
2023/03/02 19:28:54;;;;;;;;;;;;;;;8.33;52.30;98192.72;6188418;23;20248;-60